createdAt,value
2022-10-23T00:01:50.962Z,8.70
2022-10-23T00:04:19.280Z,8.80
2022-10-23T00:06:46.409Z,8.80
2022-10-23T00:09:14.549Z,9.60
2022-10-23T00:11:42.215Z,8.80
2022-10-23T00:14:09.094Z,8.90
2022-10-23T00:16:36.311Z,9.80
2022-10-23T00:19:03.728Z,8.80
2022-10-23T00:21:30.365Z,8.80
2022-10-23T00:23:57.040Z,9.70
2022-10-23T00:26:23.839Z,8.70
2022-10-23T00:28:52.508Z,8.70
2022-10-23T00:31:19.625Z,8.60
2022-10-23T00:33:46.653Z,8.60
2022-10-23T00:36:14.391Z,8.50
2022-10-23T00:38:41.112Z,8.30
2022-10-23T00:41:08.373Z,8.30
2022-10-23T00:43:35.281Z,9.40
2022-10-23T00:46:01.953Z,8.30
2022-10-23T00:48:28.873Z,7.70
2022-10-23T00:50:55.831Z,8.20
2022-10-23T00:53:22.811Z,8.20
2022-10-23T00:55:50.587Z,8.20
2022-10-23T00:58:19.060Z,8.20
2022-10-23T01:00:50.798Z,8.20
2022-10-23T01:03:19.083Z,7.90
2022-10-23T01:08:17.783Z,7.90
2022-10-23T01:10:45.468Z,7.90
2022-10-23T01:13:15.115Z,7.90
2022-10-23T01:15:49.279Z,7.80
2022-10-23T01:18:19.053Z,7.80
2022-10-23T01:20:49.487Z,7.90
2022-10-23T01:23:31.338Z,8.00
2022-10-23T01:26:13.330Z,7.90
2022-10-23T01:28:44.730Z,7.80
2022-10-23T01:31:14.392Z,7.60
2022-10-23T01:33:43.074Z,7.50
2022-10-23T01:36:14.620Z,8.40
2022-10-23T01:38:45.855Z,7.60
2022-10-23T01:41:22.746Z,8.50
2022-10-23T01:44:11.858Z,7.50
2022-10-23T01:46:39.319Z,7.40
2022-10-23T01:49:07.974Z,7.40
2022-10-23T01:51:35.214Z,7.40
2022-10-23T01:54:02.658Z,7.30
2022-10-23T01:56:34.937Z,7.20
2022-10-23T01:59:03.607Z,7.30
2022-10-23T02:01:31.575Z,7.20
2022-10-23T02:06:26.091Z,7.20
2022-10-23T02:08:52.699Z,7.40
2022-10-23T02:11:21.159Z,7.40
2022-10-23T02:14:00.683Z,8.20
2022-10-23T02:16:35.514Z,7.60
2022-10-23T02:19:05.085Z,7.50
2022-10-23T02:21:53.593Z,7.40
2022-10-23T02:24:32.339Z,7.30
2022-10-23T02:27:09.390Z,7.30
2022-10-23T02:29:41.181Z,7.20
2022-10-23T02:32:08.960Z,7.10
2022-10-23T02:34:39.299Z,6.80
2022-10-23T02:37:05.915Z,6.90
2022-10-23T02:39:32.551Z,7.00
2022-10-23T02:42:17.399Z,7.00
2022-10-23T02:45:13.455Z,7.10
2022-10-23T02:47:49.176Z,7.10
2022-10-23T02:50:34.493Z,7.10
2022-10-23T02:53:14.236Z,7.10
2022-10-23T02:55:43.872Z,7.10
2022-10-23T02:58:24.052Z,6.80
2022-10-23T03:00:53.841Z,7.20
2022-10-23T03:03:24.947Z,7.10
2022-10-23T03:05:51.523Z,7.20
2022-10-23T03:08:18.114Z,7.20
2022-10-23T03:10:44.795Z,7.00
2022-10-23T03:13:11.444Z,7.00
2022-10-23T03:15:38.063Z,7.10
2022-10-23T03:18:04.833Z,8.10
2022-10-23T03:20:31.505Z,7.20
2022-10-23T03:22:58.068Z,7.10
2022-10-23T03:25:24.717Z,7.10
2022-10-23T03:27:51.329Z,7.00
2022-10-23T03:30:18.264Z,7.00
2022-10-23T03:32:45.147Z,8.10
2022-10-23T03:35:12.062Z,6.90
2022-10-23T03:37:38.681Z,7.00
2022-10-23T03:40:05.537Z,7.00
2022-10-23T03:42:32.119Z,6.90
2022-10-23T03:44:58.725Z,7.00
2022-10-23T03:47:25.334Z,6.90
2022-10-23T03:49:51.898Z,6.80
2022-10-23T03:52:18.551Z,6.70
2022-10-23T03:57:12.401Z,6.80
2022-10-23T03:59:39.025Z,6.90
2022-10-23T04:02:05.699Z,7.00
2022-10-23T04:04:32.348Z,8.00
2022-10-23T04:06:58.922Z,7.60
2022-10-23T04:09:25.619Z,6.70
2022-10-23T04:11:52.179Z,6.70
2022-10-23T04:14:18.747Z,6.70
2022-10-23T04:16:45.380Z,6.20
2022-10-23T04:19:12.028Z,6.50
2022-10-23T04:21:38.653Z,6.20
2022-10-23T04:24:05.450Z,6.40
2022-10-23T04:26:32.053Z,6.70
2022-10-23T04:28:58.663Z,6.80
2022-10-23T04:31:25.462Z,6.80
2022-10-23T04:33:52.147Z,6.80
2022-10-23T04:36:18.775Z,6.80
2022-10-23T04:38:45.465Z,6.80
2022-10-23T04:41:12.046Z,6.40
2022-10-23T04:43:38.657Z,6.70
2022-10-23T04:46:05.380Z,6.90
2022-10-23T04:48:32.017Z,6.40
2022-10-23T04:50:59.594Z,6.50
2022-10-23T04:53:26.922Z,6.50
2022-10-23T04:55:54.873Z,6.40
2022-10-23T04:58:21.939Z,6.30
2022-10-23T05:00:48.837Z,6.30
2022-10-23T05:03:15.627Z,6.20
2022-10-23T05:05:42.377Z,6.40
2022-10-23T05:08:09.414Z,6.30
2022-10-23T05:10:36.017Z,6.10
2022-10-23T05:13:03.002Z,6.20
2022-10-23T05:15:29.970Z,6.30
2022-10-23T05:17:58.482Z,6.50
2022-10-23T05:20:26.484Z,6.40
2022-10-23T05:22:53.959Z,6.50
2022-10-23T05:25:20.574Z,6.40
2022-10-23T05:27:47.128Z,6.40
2022-10-23T05:30:13.970Z,6.40
2022-10-23T05:32:40.930Z,6.30
2022-10-23T05:35:09.601Z,6.40
2022-10-23T05:37:40.330Z,6.40
2022-10-23T05:40:07.375Z,6.50
2022-10-23T05:42:35.241Z,6.40
2022-10-23T05:45:04.027Z,6.40
2022-10-23T05:47:31.422Z,6.40
2022-10-23T05:49:57.924Z,6.40
2022-10-23T05:52:24.465Z,6.40
2022-10-23T05:54:51.542Z,6.50
2022-10-23T05:57:18.665Z,6.50
2022-10-23T05:59:45.163Z,6.50
2022-10-23T06:02:11.729Z,6.40
2022-10-23T06:04:38.283Z,6.40
2022-10-23T06:07:05.600Z,6.30
2022-10-23T06:09:32.174Z,6.40
2022-10-23T06:11:58.695Z,6.30
2022-10-23T06:14:25.207Z,6.10
2022-10-23T06:16:51.764Z,6.20
2022-10-23T06:19:18.319Z,6.30
2022-10-23T06:21:44.864Z,6.60
2022-10-23T06:24:11.371Z,6.50
2022-10-23T06:26:37.886Z,6.70
2022-10-23T06:29:04.411Z,6.70
2022-10-23T06:31:30.973Z,6.70
2022-10-23T06:33:58.361Z,6.90
2022-10-23T06:36:25.347Z,6.50
2022-10-23T06:38:52.199Z,6.80
2022-10-23T06:41:20.501Z,6.80
2022-10-23T06:43:48.074Z,6.90
2022-10-23T06:46:14.988Z,7.00
2022-10-23T06:48:42.097Z,7.00
2022-10-23T06:51:09.623Z,7.00
2022-10-23T06:53:37.941Z,6.90
2022-10-23T06:56:05.205Z,6.80
2022-10-23T06:58:31.892Z,7.10
2022-10-23T07:01:02.375Z,7.00
2022-10-23T07:03:29.115Z,7.30
2022-10-23T07:05:55.649Z,7.20
2022-10-23T07:08:22.155Z,7.20
2022-10-23T07:10:48.813Z,7.40
2022-10-23T07:13:15.348Z,7.60
2022-10-23T07:15:41.879Z,7.80
2022-10-23T07:18:14.279Z,7.80
2022-10-23T07:23:08.958Z,8.00
2022-10-23T07:25:35.485Z,8.00
2022-10-23T07:28:02.009Z,8.10
2022-10-23T07:30:36.275Z,8.20
2022-10-23T07:33:02.814Z,8.40
2022-10-23T07:35:29.652Z,8.70
2022-10-23T07:37:56.300Z,8.80
2022-10-23T07:40:22.817Z,9.00
2022-10-23T07:42:49.344Z,9.10
2022-10-23T07:45:15.881Z,9.20
2022-10-23T07:47:42.686Z,9.20
2022-10-23T07:50:09.562Z,9.40
2022-10-23T07:52:36.340Z,9.50
2022-10-23T07:55:03.149Z,9.60
2022-10-23T07:57:29.692Z,9.80
2022-10-23T07:59:56.269Z,10.00
2022-10-23T08:02:22.897Z,10.00
2022-10-23T08:04:49.923Z,9.90
2022-10-23T08:07:16.452Z,9.90
2022-10-23T08:09:42.978Z,10.40
2022-10-23T08:12:09.624Z,10.40
2022-10-23T08:14:36.140Z,10.80
2022-10-23T08:17:03.124Z,11.00
2022-10-23T08:19:30.008Z,11.20
2022-10-23T08:21:57.252Z,11.50
2022-10-23T08:24:23.796Z,11.70
2022-10-23T08:26:50.443Z,11.90
2022-10-23T08:29:16.979Z,12.00
2022-10-23T08:31:43.551Z,12.10
2022-10-23T08:34:10.066Z,12.30
2022-10-23T08:36:39.101Z,12.40
2022-10-23T08:39:06.115Z,12.70
2022-10-23T08:41:37.125Z,12.90
2022-10-23T08:44:18.145Z,13.10
2022-10-23T08:46:47.240Z,13.30
2022-10-23T08:49:13.718Z,13.30
2022-10-23T08:51:42.199Z,13.40
2022-10-23T08:54:14.227Z,13.60
2022-10-23T08:56:53.438Z,13.60
2022-10-23T08:59:22.529Z,13.80
2022-10-23T09:01:55.864Z,13.90
2022-10-23T09:04:25.980Z,14.00
2022-10-23T09:07:12.413Z,14.10
2022-10-23T09:09:58.537Z,14.20
2022-10-23T09:12:26.110Z,14.20
2022-10-23T09:15:28.521Z,14.30
2022-10-23T09:17:57.555Z,14.30
2022-10-23T09:20:25.849Z,14.40
2022-10-23T09:23:04.364Z,14.40
2022-10-23T09:25:36.817Z,14.50
2022-10-23T09:28:05.572Z,14.50
2022-10-23T09:30:33.941Z,14.70
2022-10-23T09:33:01.086Z,14.80
2022-10-23T09:35:29.201Z,16.10
2022-10-23T09:37:56.244Z,15.00
2022-10-23T09:40:38.671Z,15.20
2022-10-23T09:43:15.551Z,15.20
2022-10-23T09:45:42.592Z,15.30
2022-10-23T09:48:16.620Z,15.60
2022-10-23T09:50:48.328Z,15.80
2022-10-23T09:53:22.046Z,15.90
2022-10-23T09:55:53.299Z,15.80
2022-10-23T09:58:29.368Z,15.60
2022-10-23T10:00:57.002Z,15.70
2022-10-23T10:03:24.311Z,15.90
2022-10-23T10:06:08.986Z,15.80
2022-10-23T10:08:49.852Z,16.00
2022-10-23T10:11:19.896Z,16.00
2022-10-23T10:13:46.414Z,16.00
2022-10-23T10:16:20.667Z,16.10
2022-10-23T10:19:11.394Z,16.30
2022-10-23T10:21:45.222Z,16.60
2022-10-23T10:24:21.669Z,16.80
2022-10-23T10:27:07.077Z,17.00
2022-10-23T10:29:33.556Z,17.00
2022-10-23T10:32:05.939Z,17.00
2022-10-23T10:34:51.207Z,17.10
2022-10-23T10:37:23.106Z,17.10
2022-10-23T10:39:58.024Z,17.10
2022-10-23T10:42:30.992Z,17.00
2022-10-23T10:45:15.252Z,17.00
2022-10-23T10:47:45.065Z,17.00
2022-10-23T10:50:14.861Z,17.00
2022-10-23T10:52:50.640Z,17.10
2022-10-23T10:55:25.283Z,17.40
2022-10-23T10:58:01.174Z,17.40
2022-10-23T11:00:28.872Z,17.40
2022-10-23T11:03:04.661Z,17.50
2022-10-23T12:01:42.767Z,19.40
2022-10-23T12:04:15.263Z,19.30
2022-10-23T12:06:44.601Z,19.30
2022-10-23T12:09:20.600Z,19.40
2022-10-23T12:11:48.596Z,19.20
2022-10-23T12:14:28.827Z,19.40
2022-10-23T12:16:55.479Z,19.40
2022-10-23T12:19:23.748Z,19.40
2022-10-23T12:21:55.082Z,19.10
2022-10-23T12:24:27.144Z,19.10
2022-10-23T12:27:00.139Z,18.90
2022-10-23T12:29:29.734Z,18.50
2022-10-23T12:32:07.699Z,18.40
2022-10-23T12:34:53.166Z,18.40
2022-10-23T12:37:38.511Z,18.30
2022-10-23T12:40:09.239Z,18.40
2022-10-23T12:42:36.896Z,18.60
2022-10-23T12:45:14.463Z,19.30
2022-10-23T12:47:42.899Z,19.20
2022-10-23T12:50:20.489Z,20.00
2022-10-23T12:52:53.128Z,19.70
2022-10-23T12:55:20.080Z,19.80
2022-10-23T13:00:18.991Z,20.20
2022-10-23T13:07:47.302Z,21.90
2022-10-23T13:10:14.959Z,22.40
2022-10-23T13:15:10.914Z,21.60
2022-10-23T13:17:41.794Z,21.90
2022-10-23T13:20:09.731Z,21.10
2022-10-23T13:22:36.413Z,20.60
2022-10-23T13:25:03.263Z,20.80
2022-10-23T13:27:29.828Z,20.10
2022-10-23T13:29:56.379Z,20.50
2022-10-23T13:32:24.316Z,20.00
2022-10-23T13:35:04.399Z,19.60
2022-10-23T13:40:26.813Z,19.20
2022-10-23T13:42:54.772Z,19.00
2022-10-23T13:45:22.913Z,19.40
2022-10-23T13:47:49.864Z,18.90
2022-10-23T13:50:16.659Z,19.30
2022-10-23T13:52:43.284Z,19.00
2022-10-23T13:55:15.569Z,19.10
2022-10-23T13:57:43.100Z,18.70
2022-10-23T14:00:10.249Z,18.70
2022-10-23T14:02:36.999Z,18.80
2022-10-23T14:05:03.743Z,20.20
2022-10-23T14:09:57.480Z,23.20
2022-10-23T14:12:24.208Z,23.90
2022-10-23T14:14:51.876Z,23.70
2022-10-23T14:17:19.119Z,23.20
2022-10-23T14:39:34.541Z,23.80
2022-10-23T14:49:22.737Z,24.00
2022-10-23T14:51:49.387Z,21.50
2022-10-23T14:54:16.292Z,21.10
2022-10-23T14:56:42.953Z,20.50
2022-10-23T14:59:10.848Z,20.10
2022-10-23T15:01:45.900Z,20.20
2022-10-23T15:04:15.335Z,19.60
2022-10-23T15:06:42.458Z,20.20
2022-10-23T15:09:09.301Z,20.20
2022-10-23T15:11:35.964Z,20.60
2022-10-23T15:14:02.594Z,19.80
2022-10-23T15:16:29.229Z,19.30
2022-10-23T15:18:55.965Z,18.90
2022-10-23T15:21:22.637Z,18.70
2022-10-23T15:23:49.652Z,18.70
2022-10-23T15:28:48.097Z,18.20
2022-10-23T15:31:30.113Z,19.10
2022-10-23T15:48:39.169Z,17.30
2022-10-23T15:51:05.892Z,17.60
2022-10-23T15:55:59.566Z,17.50
2022-10-23T15:58:26.219Z,17.90
2022-10-23T16:00:52.948Z,18.40
2022-10-23T16:05:46.658Z,16.80
2022-10-23T16:10:41.416Z,16.60
2022-10-23T16:13:08.632Z,17.10
2022-10-23T16:15:35.677Z,16.90
2022-10-23T16:18:02.333Z,16.50
2022-10-23T16:20:28.967Z,16.40
2022-10-23T16:25:22.652Z,16.30
2022-10-23T16:27:49.358Z,16.70
2022-10-23T16:32:43.170Z,16.20
2022-10-23T16:35:12.429Z,16.10
2022-10-23T16:37:39.910Z,17.00
2022-10-23T16:40:06.849Z,17.00
2022-10-23T16:42:33.578Z,16.20
2022-10-23T16:45:00.208Z,16.10
2022-10-23T16:47:26.889Z,16.30
2022-10-23T16:49:53.530Z,16.60
2022-10-23T16:54:47.232Z,15.90
2022-10-23T16:57:13.856Z,16.20
2022-10-23T16:59:40.520Z,16.20
2022-10-23T17:02:08.011Z,15.80
2022-10-23T17:04:35.970Z,16.30
2022-10-23T17:07:02.743Z,16.20
2022-10-23T17:09:31.238Z,16.40
2022-10-23T17:11:58.200Z,16.50
2022-10-23T17:14:28.987Z,16.30
2022-10-23T17:16:57.006Z,16.50
2022-10-23T17:19:44.978Z,16.30
2022-10-23T17:22:12.613Z,15.80
2022-10-23T17:24:40.053Z,16.40
2022-10-23T17:27:06.623Z,16.10
2022-10-23T17:29:33.189Z,16.30
2022-10-23T17:31:59.844Z,15.80
2022-10-23T17:34:26.459Z,16.40
2022-10-23T17:39:22.408Z,15.60
2022-10-23T17:41:49.011Z,16.10
2022-10-23T17:44:15.643Z,16.40
2022-10-23T17:46:42.252Z,17.20
2022-10-23T17:49:10.014Z,17.40
2022-10-23T17:51:36.704Z,17.10
2022-10-23T17:54:05.265Z,17.00
2022-10-23T17:56:32.957Z,17.20
2022-10-23T17:59:00.696Z,17.40
2022-10-23T18:01:28.430Z,17.40
2022-10-23T18:03:55.851Z,16.80
2022-10-23T18:26:00.641Z,15.40
2022-10-23T18:28:27.843Z,15.00
2022-10-23T18:30:56.859Z,16.10
2022-10-23T18:33:23.959Z,17.40
2022-10-23T18:35:51.353Z,17.30
2022-10-23T18:38:19.260Z,15.50
2022-10-23T18:40:46.362Z,15.40
2022-10-23T18:43:15.152Z,16.40
2022-10-23T18:45:46.549Z,17.00
2022-10-23T18:48:13.577Z,16.20
2022-10-23T18:50:40.171Z,17.40
2022-10-23T18:53:07.294Z,16.70
2022-10-23T18:58:00.479Z,15.70
2022-10-23T19:00:27.108Z,15.50
2022-10-23T19:02:53.756Z,15.30
2022-10-23T19:05:20.471Z,15.60
2022-10-23T20:41:06.235Z,16.40
2022-10-23T20:43:33.747Z,14.90
2022-10-23T20:46:04.802Z,16.30
2022-10-23T20:48:35.273Z,15.00
2022-10-23T20:51:02.560Z,14.60
2022-10-23T20:53:29.225Z,14.60
2022-10-23T20:55:55.846Z,14.90
2022-10-23T20:58:22.556Z,14.70
2022-10-23T21:00:49.298Z,14.70
2022-10-23T21:03:15.980Z,16.40
2022-10-23T21:05:43.501Z,15.80
2022-10-23T21:08:10.064Z,15.30
2022-10-23T21:10:36.614Z,16.30
2022-10-23T21:13:03.160Z,16.20
2022-10-23T21:15:36.037Z,15.00
2022-10-23T21:18:13.064Z,15.10
2022-10-23T21:20:49.198Z,15.00
2022-10-23T21:23:15.817Z,16.30
2022-10-23T21:25:43.294Z,15.00
2022-10-23T21:28:10.566Z,16.90
2022-10-23T21:30:37.625Z,15.30
2022-10-23T21:33:04.765Z,15.20
2022-10-23T21:35:31.707Z,15.10
2022-10-23T21:37:58.334Z,15.10
2022-10-23T21:40:26.162Z,15.00
2022-10-23T21:42:53.399Z,14.80
2022-10-23T21:45:20.042Z,14.60
2022-10-23T21:47:46.756Z,14.80
2022-10-23T21:50:13.509Z,15.10
2022-10-23T21:52:49.740Z,15.50
2022-10-23T21:55:16.343Z,15.80
2022-10-23T21:57:43.073Z,14.80
2022-10-23T22:00:10.092Z,15.00
2022-10-23T22:02:36.705Z,14.80
2022-10-23T22:05:03.406Z,13.40
2022-10-23T22:07:30.018Z,14.80
2022-10-23T22:09:56.641Z,14.90
2022-10-23T22:12:23.277Z,14.80
2022-10-23T22:14:49.907Z,14.70
2022-10-23T22:17:16.790Z,14.80
2022-10-23T22:19:43.413Z,14.80
2022-10-23T22:22:10.043Z,14.90
2022-10-23T22:24:36.887Z,14.70
2022-10-23T22:27:03.572Z,14.80
2022-10-23T22:29:30.232Z,14.90
2022-10-23T22:31:57.285Z,15.00
2022-10-23T22:37:16.198Z,14.70
2022-10-23T22:39:43.077Z,14.60
2022-10-23T22:42:09.720Z,14.10
2022-10-23T22:44:36.290Z,14.20
2022-10-23T22:47:03.015Z,14.40
2022-10-23T22:49:31.424Z,15.10
2022-10-23T22:51:58.111Z,14.40
2022-10-23T22:54:24.720Z,14.30
2022-10-23T22:56:51.306Z,14.30
2022-10-23T22:59:17.895Z,15.90
2022-10-23T23:01:45.615Z,14.30
2022-10-23T23:04:19.700Z,14.80
2022-10-23T23:06:59.186Z,14.50
2022-10-23T23:09:25.749Z,15.30
2022-10-23T23:11:52.793Z,14.40
2022-10-23T23:14:24.134Z,14.80
2022-10-23T23:16:52.333Z,14.30
2022-10-23T23:19:19.075Z,14.30
2022-10-23T23:21:45.678Z,15.40
2022-10-23T23:24:12.240Z,14.40
2022-10-23T23:26:38.859Z,15.00
2022-10-23T23:29:05.630Z,14.90
2022-10-23T23:31:32.235Z,14.70
2022-10-23T23:33:58.829Z,15.20
2022-10-23T23:36:26.251Z,14.00
2022-10-23T23:38:53.088Z,15.30
2022-10-23T23:41:20.456Z,14.90
2022-10-23T23:43:47.058Z,15.10
2022-10-23T23:46:13.646Z,14.40
2022-10-23T23:48:42.183Z,13.70
2022-10-23T23:51:09.070Z,13.60
2022-10-23T23:53:35.610Z,13.70
2022-10-23T23:56:02.220Z,13.70
2022-10-23T23:58:28.767Z,14.00
